Time;durP1;ratioP1;P1;durP2;ratioP2;P2;SDS_P1;SDS_P2;PMS_P1;PMS_P2;Temp;Humidity;BMP_temperature;BMP_pressure;BME280_temperature;BME280_humidity;BME280_pressure;Samples;Min_cycle;Max_cycle;Signal;HPM_P1;HPM_P2
2022/11/27 00:02:02;;;;;;;22.08;12.10;;;;;;;6.94;100.00;101707.16;5001861;28;20213;-75
2022/11/27 00:04:28;;;;;;;15.77;11.20;;;;;;;6.88;100.00;101702.75;5009571;28;20213;-75
2022/11/27 00:06:55;;;;;;;18.13;11.32;;;;;;;6.91;100.00;101704.53;5009083;28;20209;-72
2022/11/27 00:09:22;;;;;;;20.67;10.77;;;;;;;6.93;100.00;101705.41;5010080;28;20235;-73
2022/11/27 00:11:50;;;;;;;14.75;10.88;;;;;;;6.96;100.00;101694.63;5016579;28;20206;-73
2022/11/27 00:14:17;;;;;;;15.75;10.48;;;;;;;6.96;100.00;101685.72;5007036;28;20201;-71
2022/11/27 00:16:44;;;;;;;16.27;10.13;;;;;;;6.97;100.00;101679.47;4994525;28;20212;-73
2022/11/27 00:19:11;;;;;;;22.42;15.15;;;;;;;6.92;100.00;101682.22;5019632;28;20239;-76
2022/11/27 00:21:38;;;;;;;21.17;15.40;;;;;;;6.89;100.00;101675.06;5013692;28;20229;-76
2022/11/27 00:24:07;;;;;;;17.30;13.00;;;;;;;6.86;100.00;101669.75;5029786;28;20209;-76
2022/11/27 00:26:34;;;;;;;15.85;10.40;;;;;;;6.85;100.00;101673.34;5008334;28;20226;-74
2022/11/27 00:29:02;;;;;;;15.40;10.75;;;;;;;6.85;100.00;101670.66;5018063;28;20256;-74
2022/11/27 00:31:31;;;;;;;18.27;11.70;;;;;;;6.88;100.00;101673.31;5019916;28;20203;-76
2022/11/27 00:34:00;;;;;;;15.65;11.40;;;;;;;6.82;100.00;101664.44;5018607;28;20208;-75
2022/11/27 00:36:27;;;;;;;15.93;10.05;;;;;;;6.79;100.00;101660.00;5016747;28;20205;-76
2022/11/27 00:38:54;;;;;;;20.73;11.00;;;;;;;6.79;100.00;101657.31;5014283;28;20221;-75
2022/11/27 00:41:23;;;;;;;14.63;11.23;;;;;;;6.80;100.00;101661.75;5014407;28;20202;-75
2022/11/27 00:43:50;;;;;;;18.45;10.65;;;;;;;6.80;100.00;101653.72;5022250;28;20212;-75
2022/11/27 00:46:21;;;;;;;16.08;10.07;;;;;;;6.82;100.00;101651.03;5031692;28;20311;-73
2022/11/27 00:48:47;;;;;;;14.27;9.32;;;;;;;6.81;100.00;101642.13;5033009;28;20310;-74
2022/11/27 00:51:16;;;;;;;14.27;9.10;;;;;;;6.80;100.00;101645.69;5014787;28;20633;-73
2022/11/27 00:53:44;;;;;;;12.23;8.55;;;;;;;6.78;100.00;101652.84;5003664;28;20220;-72
2022/11/27 00:56:14;;;;;;;12.80;9.13;;;;;;;6.76;100.00;101649.34;5004847;28;20285;-74
2022/11/27 00:58:41;;;;;;;17.00;9.88;;;;;;;6.74;100.00;101658.25;4991027;28;20240;-73
2022/11/27 01:01:08;;;;;;;15.63;9.95;;;;;;;6.79;100.00;101649.28;4992641;28;20205;-71
2022/11/27 01:03:36;;;;;;;12.90;9.50;;;;;;;6.82;100.00;101648.38;4996586;28;20213;-74
2022/11/27 01:06:03;;;;;;;16.83;10.32;;;;;;;6.83;100.00;101643.00;4993736;28;20222;-73
2022/11/27 01:08:30;;;;;;;14.23;9.90;;;;;;;6.82;100.00;101643.00;4994760;28;20221;-73
2022/11/27 01:10:58;;;;;;;13.75;9.77;;;;;;;6.83;100.00;101639.44;4997453;28;20202;-73
2022/11/27 01:13:26;;;;;;;12.45;9.60;;;;;;;6.82;100.00;101640.34;4995242;28;20213;-70
2022/11/27 01:15:59;;;;;;;17.63;9.27;;;;;;;6.81;100.00;101636.78;4993421;28;20676;-74
2022/11/27 01:18:25;;;;;;;13.82;10.38;;;;;;;6.77;100.00;101627.00;4994724;28;20222;-73
2022/11/27 01:20:54;;;;;;;25.38;9.82;;;;;;;6.78;100.00;101634.09;5014463;28;20208;-75
2022/11/27 01:23:20;;;;;;;17.00;10.90;;;;;;;6.81;100.00;101630.53;5009496;28;20210;-75
2022/11/27 01:25:48;;;;;;;14.80;10.13;;;;;;;6.78;100.00;101626.06;4996767;28;20240;-73
2022/11/27 01:28:14;;;;;;;14.50;9.68;;;;;;;6.67;100.00;101617.25;4997796;28;20284;-74
2022/11/27 01:30:41;;;;;;;13.48;9.65;;;;;;;6.73;100.00;101616.34;5001461;28;20202;-76
2022/11/27 01:33:08;;;;;;;11.65;8.73;;;;;;;6.74;100.00;101602.94;5032201;28;20301;-72
2022/11/27 01:35:34;;;;;;;18.02;10.45;;;;;;;6.71;100.00;101610.97;5025291;28;20191;-73
2022/11/27 01:38:02;;;;;;;14.65;9.88;;;;;;;6.64;100.00;101609.28;5029895;28;20217;-75
2022/11/27 01:40:29;;;;;;;12.60;8.57;;;;;;;6.63;100.00;101610.19;5034785;28;20711;-73
2022/11/27 01:42:55;;;;;;;11.30;8.88;;;;;;;6.61;100.00;101617.34;5034321;28;20235;-73
2022/11/27 01:45:23;;;;;;;15.18;9.45;;;;;;;6.58;100.00;101612.00;5014184;28;20225;-75
2022/11/27 01:47:52;;;;;;;13.93;9.15;;;;;;;6.55;100.00;101606.69;5013586;28;20300;-73
2022/11/27 01:50:22;;;;;;;15.57;9.30;;;;;;;6.48;100.00;101612.09;5004027;28;20686;-73
2022/11/27 01:52:52;;;;;;;11.73;8.20;;;;;;;6.37;100.00;101597.91;5001304;28;20207;-74
2022/11/27 01:55:25;;;;;;;13.85;8.95;;;;;;;6.28;100.00;101610.50;4995194;28;20198;-74
2022/11/27 01:57:57;;;;;;;14.02;8.90;;;;;;;6.10;100.00;101611.53;5011284;28;20212;-75
2022/11/27 02:00:25;;;;;;;14.32;9.38;;;;;;;5.94;100.00;101613.41;5014950;28;20654;-74
2022/11/27 02:02:51;;;;;;;15.23;8.75;;;;;;;5.87;100.00;101622.38;5014525;28;20213;-74
2022/11/27 02:05:22;;;;;;;12.35;9.30;;;;;;;5.81;100.00;101616.16;5006233;28;20236;-73
2022/11/27 02:07:50;;;;;;;15.63;9.38;;;;;;;5.68;100.00;101626.94;4993974;28;20232;-74
2022/11/27 02:10:17;;;;;;;16.85;9.35;;;;;;;5.59;100.00;101634.09;4998789;28;20541;-72
2022/11/27 02:12:54;;;;;;;14.57;8.80;;;;;;;5.48;100.00;101630.59;5011796;28;20673;-74
2022/11/27 02:15:30;;;;;;;19.05;9.32;;;;;;;5.38;100.00;101620.81;4998852;28;20569;-73
2022/11/27 02:18:06;;;;;;;13.95;9.27;;;;;;;5.30;100.00;101612.84;5013066;28;20223;-74
2022/11/27 02:20:42;;;;;;;18.42;10.88;;;;;;;5.18;100.00;101603.13;5018382;28;20227;-75
2022/11/27 02:23:53;;;;;;;18.38;10.43;;;;;;;5.12;100.00;101604.94;5019761;28;20250;-75
2022/11/27 02:27:00;;;;;;;14.98;9.10;;;;;;;5.07;100.00;101606.72;5024223;28;20213;-75
2022/11/27 02:29:32;;;;;;;17.15;9.23;;;;;;;4.99;100.00;101591.59;5019234;28;20223;-73
2022/11/27 02:32:05;;;;;;;15.35;9.10;;;;;;;4.96;100.00;101588.94;5027533;28;20652;-73
2022/11/27 02:34:41;;;;;;;14.88;8.95;;;;;;;4.85;100.00;101584.53;5019636;28;20556;-75
2022/11/27 02:37:13;;;;;;;18.58;10.52;;;;;;;4.84;100.00;101582.75;5028887;28;20670;-75
2022/11/27 02:39:45;;;;;;;23.25;11.27;;;;;;;4.75;100.00;101581.91;5010461;28;20225;-73
2022/11/27 02:42:16;;;;;;;15.60;10.52;;;;;;;4.70;100.00;101589.00;5022504;28;20191;-74
2022/11/27 02:44:49;;;;;;;19.10;10.45;;;;;;;4.68;100.00;101595.25;5033012;28;20295;-74
2022/11/27 02:47:16;;;;;;;21.80;10.25;;;;;;;4.66;100.00;101584.59;5024960;28;20297;-75
2022/11/27 02:49:44;;;;;;;19.30;10.55;;;;;;;4.63;100.00;101589.91;5023956;28;20230;-74
2022/11/27 02:52:13;;;;;;;18.45;10.20;;;;;;;4.59;100.00;101588.16;5020537;28;20206;-76
2022/11/27 02:54:41;;;;;;;14.38;9.85;;;;;;;4.53;100.00;101582.84;5022340;28;20198;-76
2022/11/27 02:57:10;;;;;;;15.48;9.60;;;;;;;4.49;100.00;101575.72;5032703;28;20201;-75
2022/11/27 02:59:38;;;;;;;17.73;10.05;;;;;;;4.43;100.00;101573.94;5011112;28;20225;-75
2022/11/27 03:02:11;;;;;;;23.13;10.95;;;;;;;4.35;100.00;101560.63;5022978;28;20199;-76
2022/11/27 03:04:42;;;;;;;17.88;11.40;;;;;;;4.33;100.00;101558.84;5016256;28;20217;-75
2022/11/27 03:07:14;;;;;;;19.00;11.35;;;;;;;4.28;100.00;101552.66;5023192;28;20242;-73
2022/11/27 03:09:46;;;;;;;22.80;11.75;;;;;;;4.23;100.00;101559.72;5017330;28;20246;-74
2022/11/27 03:12:16;;;;;;;19.20;11.50;;;;;;;4.22;100.00;101564.19;5023090;28;20202;-72
2022/11/27 03:14:43;;;;;;;17.38;9.50;;;;;;;4.17;100.00;101568.66;5032168;28;20199;-73
2022/11/27 03:17:29;;;;;;;17.60;11.10;;;;;;;4.03;100.00;101573.09;5044771;28;20203;-73
2022/11/27 03:20:00;;;;;;;18.00;11.05;;;;;;;3.94;100.00;101587.31;5016140;28;20218;-72
2022/11/27 03:22:27;;;;;;;24.05;12.65;;;;;;;3.88;100.00;101568.63;5020339;28;20201;-72
2022/11/27 03:24:55;;;;;;;18.17;11.80;;;;;;;3.90;100.00;101565.06;5014543;28;20194;-72
2022/11/27 03:27:26;;;;;;;18.77;11.80;;;;;;;3.88;100.00;101557.97;5015700;28;20218;-71
2022/11/27 03:29:56;;;;;;;20.10;11.05;;;;;;;3.86;100.00;101547.28;5019784;28;20237;-75
2022/11/27 03:32:26;;;;;;;18.77;11.43;;;;;;;3.84;100.00;101543.75;4997876;28;20194;-73
2022/11/27 03:34:52;;;;;;;16.40;11.80;;;;;;;3.80;100.00;101551.72;4996781;28;20207;-75
2022/11/27 03:37:20;;;;;;;16.92;12.30;;;;;;;3.78;100.00;101557.09;4997723;28;20209;-75
2022/11/27 03:39:47;;;;;;;22.13;12.65;;;;;;;3.72;100.00;101555.28;4994526;28;20238;-75
2022/11/27 03:42:22;;;;;;;21.17;12.80;;;;;;;3.71;100.00;101558.84;5000382;28;20206;-73
2022/11/27 03:44:57;;;;;;;20.30;12.48;;;;;;;3.64;100.00;101551.75;4996549;28;20205;-75
2022/11/27 03:47:40;;;;;;;23.65;14.50;;;;;;;3.61;100.00;101540.19;4992390;28;20628;-72
2022/11/27 03:50:21;;;;;;;16.52;11.30;;;;;;;3.59;100.00;101533.97;4996480;28;20191;-73
2022/11/27 03:52:54;;;;;;;23.35;12.95;;;;;;;3.52;100.00;101535.72;4995389;28;20953;-72
2022/11/27 03:55:28;;;;;;;19.88;12.55;;;;;;;3.48;100.00;101532.19;4993600;28;20696;-73
2022/11/27 03:57:59;;;;;;;19.67;12.02;;;;;;;3.43;100.00;101525.94;4993334;28;20824;-73
2022/11/27 04:00:27;;;;;;;26.02;12.70;;;;;;;3.40;100.00;101525.06;4992849;28;20210;-73
2022/11/27 04:02:55;;;;;;;21.77;12.85;;;;;;;3.37;100.00;101520.63;5010950;28;20206;-74
2022/11/27 04:05:22;;;;;;;20.67;12.95;;;;;;;3.34;100.00;101529.47;5020095;28;20325;-75
2022/11/27 04:07:49;;;;;;;22.05;13.88;;;;;;;3.31;100.00;101529.47;5003683;28;20297;-73
2022/11/27 04:10:15;;;;;;;25.25;12.60;;;;;;;3.31;100.00;101524.13;4999883;28;20213;-72
2022/11/27 04:12:42;;;;;;;21.15;13.48;;;;;;;3.34;100.00;101517.94;5002206;28;20388;-73
2022/11/27 04:15:10;;;;;;;22.98;13.57;;;;;;;3.31;100.00;101516.16;5009117;28;20245;-74
2022/11/27 04:17:36;;;;;;;22.65;11.98;;;;;;;3.30;100.00;101517.06;5018059;28;20758;-76
2022/11/27 04:20:06;;;;;;;20.15;12.70;;;;;;;3.30;100.00;101525.03;5014453;28;20669;-74
2022/11/27 04:22:33;;;;;;;18.17;11.63;;;;;;;3.32;100.00;101519.69;5017619;28;20262;-74
2022/11/27 04:24:59;;;;;;;22.92;12.93;;;;;;;3.26;100.00;101517.91;5023046;28;20194;-75
2022/11/27 04:27:26;;;;;;;22.17;13.05;;;;;;;3.23;100.00;101517.00;5013702;28;20218;-74
2022/11/27 04:29:52;;;;;;;26.20;13.30;;;;;;;3.24;100.00;101518.81;5012295;28;20249;-75
2022/11/27 04:32:19;;;;;;;26.13;12.27;;;;;;;3.21;100.00;101506.38;5012222;28;20201;-76
2022/11/27 04:34:45;;;;;;;24.08;13.52;;;;;;;3.19;100.00;101504.56;5010086;28;20206;-74
2022/11/27 04:37:13;;;;;;;24.48;13.95;;;;;;;3.21;100.00;101490.41;5010537;28;20237;-74
2022/11/27 04:39:40;;;;;;;22.33;13.95;;;;;;;3.24;100.00;101497.50;5012665;28;20224;-75
2022/11/27 04:42:07;;;;;;;22.48;14.15;;;;;;;3.20;100.00;101495.72;5030853;28;20198;-74
2022/11/27 04:44:33;;;;;;;23.10;13.65;;;;;;;3.10;100.00;101485.03;5016461;28;20213;-74
2022/11/27 04:47:00;;;;;;;26.08;13.63;;;;;;;3.08;100.00;101493.91;5012827;28;20626;-78
2022/11/27 04:49:26;;;;;;;25.05;14.20;;;;;;;3.06;100.00;101496.56;5011692;28;20214;-77
2022/11/27 04:51:53;;;;;;;22.63;13.00;;;;;;;3.02;100.00;101492.09;5016963;28;20209;-73
2022/11/27 04:54:21;;;;;;;22.17;14.45;;;;;;;3.00;100.00;101488.56;5019708;28;20203;-75
2022/11/27 04:56:47;;;;;;;27.52;15.13;;;;;;;2.98;100.00;101485.00;5019844;28;20207;-74
2022/11/27 04:59:14;;;;;;;25.15;14.43;;;;;;;3.00;100.00;101477.91;5020917;28;20735;-74
2022/11/27 05:01:41;;;;;;;25.40;14.35;;;;;;;2.97;100.00;101487.69;5028977;28;20670;-73
2022/11/27 05:04:07;;;;;;;23.48;12.60;;;;;;;2.93;100.00;101492.97;5027806;28;20204;-74
2022/11/27 05:06:34;;;;;;;28.55;14.50;;;;;;;2.91;100.00;101483.19;5022624;28;20222;-77
2022/11/27 05:09:00;;;;;;;24.23;14.57;;;;;;;2.92;100.00;101490.31;5019314;28;20222;-74
2022/11/27 05:11:30;;;;;;;24.30;15.15;;;;;;;2.90;100.00;101484.09;5024957;28;20205;-77
2022/11/27 05:16:37;;;;;;;31.27;14.68;;;;;;;2.91;100.00;101491.19;5015336;28;20194;-77
2022/11/27 05:19:03;;;;;;;26.95;14.70;;;;;;;2.83;100.00;101487.63;5018848;28;20228;-73
2022/11/27 05:21:30;;;;;;;24.52;14.57;;;;;;;2.83;100.00;101483.19;5023596;28;20205;-74
2022/11/27 05:23:56;;;;;;;27.90;14.60;;;;;;;2.82;100.00;101478.72;5026546;28;20679;-74
2022/11/27 05:26:23;;;;;;;28.17;15.90;;;;;;;2.77;100.00;101477.84;5018097;28;20309;-75
2022/11/27 05:28:53;;;;;;;30.65;15.90;;;;;;;2.75;100.00;101474.28;5026464;28;20224;-75
2022/11/27 05:31:20;;;;;;;27.27;14.15;;;;;;;2.70;100.00;101476.03;5023571;28;20636;-75
2022/11/27 05:33:47;;;;;;;32.58;15.70;;;;;;;2.66;100.00;101471.59;5026860;28;20645;-74
2022/11/27 05:36:13;;;;;;;26.63;14.25;;;;;;;2.67;100.00;101468.06;5035134;28;20565;-75
2022/11/27 05:38:40;;;;;;;26.38;14.77;;;;;;;2.65;100.00;101468.03;5031553;28;20779;-75
2022/11/27 05:41:06;;;;;;;30.90;15.27;;;;;;;2.65;100.00;101472.47;5015893;28;20216;-75
2022/11/27 05:43:33;;;;;;;28.90;15.23;;;;;;;2.66;100.00;101472.47;5011169;28;20222;-75
2022/11/27 05:46:04;;;;;;;25.90;14.43;;;;;;;2.60;100.00;101469.81;5016139;28;20281;-74
2022/11/27 05:48:31;;;;;;;24.95;13.60;;;;;;;2.55;100.00;101473.31;5014959;28;20230;-74
2022/11/27 05:50:58;;;;;;;24.30;13.20;;;;;;;2.58;100.00;101474.22;5017998;28;20577;-73
2022/11/27 05:53:24;;;;;;;25.42;14.80;;;;;;;2.68;100.00;101481.34;5025710;28;20213;-72
2022/11/27 05:55:51;;;;;;;28.67;13.90;;;;;;;2.77;100.00;101483.16;5024424;28;20207;-73
2022/11/27 05:58:17;;;;;;;23.45;14.23;;;;;;;2.78;100.00;101473.41;5017131;28;20313;-72
2022/11/27 06:00:44;;;;;;;27.38;15.15;;;;;;;2.79;100.00;101460.09;5035768;28;20309;-75
2022/11/27 06:03:12;;;;;;;27.08;15.05;;;;;;;2.80;100.00;101463.66;5009808;28;20202;-74
2022/11/27 06:05:38;;;;;;;25.23;14.35;;;;;;;2.71;100.00;101462.75;5024114;28;20273;-71
2022/11/27 06:08:05;;;;;;;28.98;15.82;;;;;;;2.67;100.00;101455.63;5023846;28;20236;-75
2022/11/27 06:10:31;;;;;;;24.63;13.65;;;;;;;2.66;100.00;101451.19;5027328;28;20198;-76
2022/11/27 06:12:58;;;;;;;34.38;14.80;;;;;;;2.72;100.00;101445.00;5022597;28;20244;-75
2022/11/27 06:15:25;;;;;;;28.88;13.38;;;;;;;2.77;100.00;101437.94;5024616;28;20269;-73
2022/11/27 06:17:51;;;;;;;22.55;13.48;;;;;;;2.68;100.00;101444.09;5024735;28;20194;-75
2022/11/27 06:20:20;;;;;;;22.80;13.70;;;;;;;2.62;100.00;101452.09;5017869;28;20194;-74
2022/11/27 06:22:46;;;;;;;25.52;14.73;;;;;;;2.68;100.00;101454.75;5021279;28;20214;-75
2022/11/27 06:25:13;;;;;;;29.95;15.60;;;;;;;2.61;100.00;101452.06;5023198;28;20202;-71
2022/11/27 06:27:39;;;;;;;25.92;14.52;;;;;;;2.64;100.00;101444.97;5020639;28;20731;-74
2022/11/27 06:30:07;;;;;;;26.63;15.20;;;;;;;2.62;100.00;101432.53;5018768;28;20293;-74
2022/11/27 06:32:34;;;;;;;34.35;19.23;;;;;;;2.62;100.00;101436.13;5025743;28;20213;-75
2022/11/27 06:35:00;;;;;;;38.90;21.90;;;;;;;2.57;100.00;101434.31;5021567;28;20206;-74
2022/11/27 06:37:28;;;;;;;32.22;17.92;;;;;;;2.44;100.00;101438.66;5024867;28;20195;-74
2022/11/27 06:39:55;;;;;;;27.98;15.23;;;;;;;2.49;100.00;101439.59;5038162;28;20225;-73
2022/11/27 06:42:22;;;;;;;57.28;29.30;;;;;;;2.50;100.00;101439.59;5026361;28;20201;-73
2022/11/27 06:44:48;;;;;;;31.00;15.68;;;;;;;2.45;100.00;101429.84;5028688;28;20668;-75
2022/11/27 06:47:15;;;;;;;22.92;13.80;;;;;;;2.39;100.00;101425.34;5032482;28;20306;-74
2022/11/27 06:49:41;;;;;;;23.42;13.23;;;;;;;2.48;100.00;101427.19;5032036;28;20216;-73
2022/11/27 06:52:08;;;;;;;27.88;13.50;;;;;;;2.42;100.00;101430.72;5028986;28;20218;-74
2022/11/27 06:54:36;;;;;;;24.30;13.60;;;;;;;2.38;100.00;101442.22;5011881;28;20190;-76
2022/11/27 06:57:02;;;;;;;29.05;15.88;;;;;;;2.44;100.00;101428.94;5022088;28;20205;-75
2022/11/27 06:59:29;;;;;;;27.00;15.38;;;;;;;2.49;100.00;101427.19;5021678;28;20306;-74
2022/11/27 07:01:55;;;;;;;21.73;12.60;;;;;;;2.43;100.00;101426.28;5025410;28;20201;-74
2022/11/27 07:04:22;;;;;;;24.38;14.32;;;;;;;2.28;100.00;101422.69;5025614;28;20573;-74
2022/11/27 07:06:49;;;;;;;40.85;21.70;;;;;;;2.24;100.00;101418.22;5021348;28;20324;-74
2022/11/27 07:09:15;;;;;;;34.08;16.25;;;;;;;2.20;100.00;101418.19;5022931;28;20327;-74
2022/11/27 07:11:43;;;;;;;22.63;13.98;;;;;;;2.27;100.00;101426.19;5023926;28;20309;-74
2022/11/27 07:14:10;;;;;;;24.77;12.45;;;;;;;2.32;100.00;101422.69;5022223;28;20206;-75
2022/11/27 07:16:37;;;;;;;37.00;21.88;;;;;;;2.38;100.00;101412.09;5019143;28;20211;-74
2022/11/27 07:19:07;;;;;;;33.17;18.70;;;;;;;2.34;100.00;101413.81;5011983;28;20229;-72
2022/11/27 07:21:33;;;;;;;25.23;14.30;;;;;;;2.42;100.00;101408.53;5019226;28;20198;-74
2022/11/27 07:24:00;;;;;;;39.90;20.88;;;;;;;2.59;100.00;101408.59;5017890;28;20667;-73
2022/11/27 07:26:29;;;;;;;33.83;18.05;;;;;;;2.73;100.00;101401.53;5026220;28;20209;-72
2022/11/27 07:28:58;;;;;;;26.20;12.50;;;;;;;2.71;100.00;101395.34;5023363;28;20228;-75
2022/11/27 07:31:26;;;;;;;25.02;14.43;;;;;;;2.69;100.00;101400.66;5024096;28;20293;-72
2022/11/27 07:33:53;;;;;;;32.28;19.25;;;;;;;2.75;100.00;101404.22;5018584;28;20276;-73
2022/11/27 07:36:22;;;;;;;27.33;16.05;;;;;;;2.87;100.00;101410.47;5019762;28;20282;-73
2022/11/27 07:38:50;;;;;;;25.52;15.07;;;;;;;3.07;100.00;101421.13;4997219;28;20254;-75
2022/11/27 07:41:17;;;;;;;32.10;19.02;;;;;;;3.14;100.00;101427.34;5010269;28;20768;-73
2022/11/27 07:43:45;;;;;;;43.17;27.45;;;;;;;3.19;100.00;101435.34;5014863;28;20225;-77
2022/11/27 07:46:14;;;;;;;35.35;20.85;;;;;;;3.28;100.00;101435.41;5014790;28;20201;-74
2022/11/27 07:48:41;;;;;;;27.42;15.45;;;;;;;3.34;100.00;101438.03;5013393;28;20224;-74
2022/11/27 07:51:09;;;;;;;19.77;13.07;;;;;;;3.52;100.00;101426.50;5014095;28;20206;-72
2022/11/27 07:53:37;;;;;;;22.90;13.77;;;;;;;3.88;100.00;101417.59;4996062;28;20239;-74
2022/11/27 07:56:04;;;;;;;22.17;12.38;;;;;;;4.28;100.00;101428.19;5003766;28;20204;-70
2022/11/27 07:58:30;;;;;;;18.75;11.35;;;;;;;4.62;100.00;101433.38;5010428;28;20298;-75
2022/11/27 08:00:57;;;;;;;21.55;12.85;;;;;;;4.57;100.00;101427.19;5008273;28;20209;-77
2022/11/27 08:03:25;;;;;;;23.85;14.80;;;;;;;4.90;100.00;101430.56;5015411;28;20226;-75
2022/11/27 08:05:52;;;;;;;34.25;21.70;;;;;;;5.02;100.00;101427.84;5014592;28;20204;-74
2022/11/27 08:08:19;;;;;;;21.35;12.65;;;;;;;4.85;100.00;101417.25;5004478;28;20304;-77
2022/11/27 08:10:45;;;;;;;21.08;13.40;;;;;;;5.10;100.00;101411.75;5014921;28;20206;-73
2022/11/27 08:13:12;;;;;;;18.80;12.82;;;;;;;5.06;100.00;101392.19;5030875;28;20577;-75
2022/11/27 08:15:38;;;;;;;18.23;11.38;;;;;;;4.93;100.00;101380.72;5018255;28;20312;-73
2022/11/27 08:18:05;;;;;;;29.55;19.77;;;;;;;5.27;100.00;101379.59;5020336;28;20217;-71
2022/11/27 08:20:33;;;;;;;19.23;12.63;;;;;;;5.60;100.00;101389.09;5016314;28;20202;-74
2022/11/27 08:22:59;;;;;;;17.80;12.15;;;;;;;5.38;100.00;101396.41;5024913;28;20315;-73
2022/11/27 08:25:26;;;;;;;17.98;11.85;;;;;;;5.57;100.00;101390.03;5017629;28;20584;-68
2022/11/27 08:27:52;;;;;;;113.40;73.00;;;;;;;5.54;100.00;101382.03;5012207;28;20225;-69
2022/11/27 08:30:22;;;;;;;90.70;59.25;;;;;;;5.56;100.00;101384.69;5014315;28;20205;-75
2022/11/27 08:32:49;;;;;;;21.83;13.82;;;;;;;5.49;100.00;101382.97;5015266;28;20206;-75
2022/11/27 08:35:16;;;;;;;26.80;16.65;;;;;;;5.58;100.00;101375.75;5015782;28;20205;-75
2022/11/27 08:37:44;;;;;;;20.25;12.02;;;;;;;5.81;100.00;101372.88;5016344;28;20576;-71
2022/11/27 08:40:11;;;;;;;15.13;11.40;;;;;;;5.47;100.00;101382.09;5013617;28;20727;-75
2022/11/27 08:42:38;;;;;;;16.17;10.88;;;;;;;5.04;100.00;101387.78;5012304;28;20204;-74
2022/11/27 08:45:05;;;;;;;19.17;11.60;;;;;;;4.75;100.00;101384.41;5015312;28;20301;-73
2022/11/27 08:47:32;;;;;;;18.40;12.05;;;;;;;4.99;100.00;101380.66;5013665;28;20356;-76
2022/11/27 08:49:58;;;;;;;15.05;11.05;;;;;;;4.97;100.00;101378.91;5015052;28;20225;-74
2022/11/27 08:52:25;;;;;;;16.23;11.45;;;;;;;5.10;100.00;101377.06;5018766;28;20237;-75
2022/11/27 08:54:53;;;;;;;15.45;11.38;;;;;;;5.15;100.00;101373.44;5022482;28;20288;-74
2022/11/27 08:57:19;;;;;;;15.85;11.00;;;;;;;5.26;100.00;101373.34;5025769;28;20212;-73
2022/11/27 08:59:46;;;;;;;15.38;10.75;;;;;;;5.41;100.00;101385.72;5017012;28;20263;-73
2022/11/27 09:02:13;;;;;;;15.27;11.35;;;;;;;5.55;100.00;101380.25;5014678;28;20264;-73
2022/11/27 09:04:39;;;;;;;17.80;11.23;;;;;;;5.95;100.00;101367.41;5026482;28;20212;-73
2022/11/27 09:07:06;;;;;;;14.23;10.13;;;;;;;5.79;100.00;101352.41;5017896;28;20205;-76
2022/11/27 09:09:32;;;;;;;13.35;9.85;;;;;;;5.82;100.00;101360.38;5007235;28;20217;-75
2022/11/27 09:12:00;;;;;;;14.30;9.90;;;;;;;5.14;100.00;101360.13;5015428;28;20208;-74
2022/11/27 09:14:27;;;;;;;14.18;10.07;;;;;;;5.14;100.00;101361.00;5016103;28;20210;-76
2022/11/27 09:16:53;;;;;;;14.07;9.68;;;;;;;5.34;100.00;101359.97;5014057;28;20267;-75
2022/11/27 09:19:20;;;;;;;15.30;9.88;;;;;;;5.68;100.00;101362.31;5014030;28;20242;-76
2022/11/27 09:21:51;;;;;;;14.35;10.25;;;;;;;5.59;100.00;101358.81;5014495;28;20204;-75
2022/11/27 09:24:18;;;;;;;16.67;10.63;;;;;;;5.61;100.00;101359.69;5012603;28;20205;-75
2022/11/27 09:26:44;;;;;;;14.93;11.13;;;;;;;5.50;100.00;101344.69;5013682;28;20634;-77
2022/11/27 09:29:12;;;;;;;17.05;11.73;;;;;;;5.61;100.00;101351.69;5017546;28;20301;-75
2022/11/27 09:31:39;;;;;;;14.88;11.43;;;;;;;5.88;100.00;101354.97;5013187;28;20210;-75
2022/11/27 09:34:06;;;;;;;18.52;13.00;;;;;;;5.93;100.00;101355.81;5013077;28;20237;-74
2022/11/27 09:36:32;;;;;;;16.90;10.85;;;;;;;6.07;100.00;101353.00;5013216;28;20281;-74
2022/11/27 09:39:01;;;;;;;16.70;11.50;;;;;;;6.18;100.00;101355.56;5012230;28;20582;-73
2022/11/27 09:41:38;;;;;;;15.27;10.75;;;;;;;6.30;100.00;101346.50;5003171;28;20223;-75
2022/11/27 09:44:18;;;;;;;18.70;12.80;;;;;;;6.64;100.00;101345.13;5004263;28;20208;-74
2022/11/27 09:46:45;;;;;;;16.52;12.45;;;;;;;6.84;100.00;101347.53;5031152;28;20712;-75
2022/11/27 09:49:17;;;;;;;14.57;10.80;;;;;;;6.88;100.00;101338.53;5032294;28;20229;-74
2022/11/27 09:51:49;;;;;;;18.33;11.77;;;;;;;7.07;100.00;101327.53;5041423;28;20688;-73
2022/11/27 09:54:20;;;;;;;16.33;11.30;;;;;;;6.98;100.00;101325.88;5044158;28;20241;-75
2022/11/27 09:56:52;;;;;;;18.48;11.43;;;;;;;6.70;100.00;101314.72;5038469;28;20209;-74
2022/11/27 09:59:22;;;;;;;16.63;11.43;;;;;;;6.78;100.00;101306.56;5025513;28;20241;-74
2022/11/27 10:01:49;;;;;;;14.50;10.90;;;;;;;6.83;100.00;101308.28;5033391;28;20628;-75
2022/11/27 10:04:18;;;;;;;19.00;11.95;;;;;;;7.04;100.00;101300.81;5038163;28;20629;-75
2022/11/27 10:07:03;;;;;;;22.85;13.73;;;;;;;7.18;100.00;101289.84;5034356;28;20657;-75
2022/11/27 10:09:43;;;;;;;28.50;19.23;;;;;;;7.42;100.00;101280.50;5024418;28;20233;-74
2022/11/27 10:12:17;;;;;;;15.90;11.90;;;;;;;7.43;100.00;101276.91;5017936;28;20736;-73
2022/11/27 10:14:58;;;;;;;17.15;12.00;;;;;;;7.79;100.00;101269.94;5022289;28;20885;-74
2022/11/27 10:17:31;;;;;;;23.15;14.73;;;;;;;8.30;100.00;101276.97;5021376;28;20202;-75
2022/11/27 10:20:03;;;;;;;19.13;14.50;;;;;;;8.87;100.00;101262.25;5015679;28;20223;-75
2022/11/27 10:22:39;;;;;;;17.70;13.20;;;;;;;9.71;100.00;101261.81;5026691;28;20194;-74
2022/11/27 10:25:16;;;;;;;13.88;11.70;;;;;;;10.29;100.00;101251.16;5036170;28;20217;-75
2022/11/27 10:27:50;;;;;;;13.88;10.45;;;;;;;10.85;100.00;101245.78;5022245;28;20280;-74
2022/11/27 10:30:21;;;;;;;15.63;12.20;;;;;;;11.74;100.00;101234.59;5035775;28;20215;-76
2022/11/27 10:32:52;;;;;;;14.63;11.02;;;;;;;12.50;100.00;101235.31;5025147;28;20209;-75
2022/11/27 10:35:21;;;;;;;14.65;10.88;;;;;;;13.04;100.00;101242.09;5022741;28;20289;-75
2022/11/27 10:37:53;;;;;;;11.50;9.20;;;;;;;13.49;100.00;101240.22;5021434;28;20205;-74
2022/11/27 10:40:23;;;;;;;13.85;11.23;;;;;;;12.92;100.00;101234.50;5022833;28;20682;-75
2022/11/27 10:42:58;;;;;;;10.93;9.27;;;;;;;13.51;100.00;101230.19;5035627;28;20197;-75
2022/11/27 10:45:35;;;;;;;14.73;10.98;;;;;;;13.91;98.17;101218.44;5037063;28;20300;-75
2022/11/27 10:48:02;;;;;;;11.25;9.52;;;;;;;13.37;93.23;101222.69;5020392;28;20226;-74
2022/11/27 10:50:29;;;;;;;13.25;10.15;;;;;;;13.43;95.33;101210.69;5001821;28;20709;-76
2022/11/27 10:52:59;;;;;;;12.73;10.18;;;;;;;13.00;94.97;101207.13;5000532;28;20210;-75
2022/11/27 10:55:50;;;;;;;11.30;9.25;;;;;;;12.23;100.00;101203.06;5000174;28;20295;-76
2022/11/27 10:58:24;;;;;;;13.25;10.27;;;;;;;12.49;100.00;101198.44;4999191;28;20321;-72
2022/11/27 11:01:02;;;;;;;12.73;9.93;;;;;;;12.61;100.00;101200.63;5000035;28;20191;-75
2022/11/27 11:03:28;;;;;;;10.60;9.50;;;;;;;12.44;100.00;101187.81;5000587;28;20289;-75
2022/11/27 11:05:58;;;;;;;12.10;10.30;;;;;;;11.97;100.00;101192.41;5006700;28;20294;-73
2022/11/27 11:08:25;;;;;;;11.00;9.23;;;;;;;11.82;100.00;101194.69;5004343;28;20227;-75
2022/11/27 11:10:54;;;;;;;13.50;10.25;;;;;;;11.51;100.00;101188.69;5017886;28;20220;-76
2022/11/27 11:13:22;;;;;;;12.75;10.15;;;;;;;11.00;100.00;101177.03;5016075;28;20678;-75
2022/11/27 11:15:57;;;;;;;15.73;11.55;;;;;;;10.60;100.00;101167.59;5014956;28;20206;-75
2022/11/27 11:18:27;;;;;;;13.05;10.63;;;;;;;10.62;100.00;101157.66;5013807;28;20218;-74
2022/11/27 11:20:57;;;;;;;13.80;9.82;;;;;;;10.60;100.00;101152.31;5015264;28;20292;-75